createdAt,value
2024-01-20T00:01:08.825Z,6.20
2024-01-20T00:04:01.971Z,6.40
2024-01-20T00:06:54.982Z,6.30
2024-01-20T00:09:51.321Z,6.80
2024-01-20T00:12:45.604Z,6.60
2024-01-20T00:15:40.354Z,7.30
2024-01-20T00:18:33.281Z,6.90
2024-01-20T00:21:26.086Z,8.90
2024-01-20T00:24:18.830Z,8.10
2024-01-20T00:27:11.655Z,8.00
2024-01-20T00:30:04.570Z,7.20
2024-01-20T00:32:57.643Z,6.20
2024-01-20T00:35:50.628Z,6.60
2024-01-20T00:38:43.799Z,6.40
2024-01-20T00:41:36.424Z,6.10
2024-01-20T00:44:29.416Z,6.40
2024-01-20T00:47:22.009Z,6.20
2024-01-20T00:50:14.887Z,6.40
2024-01-20T00:53:07.814Z,6.20
2024-01-20T00:56:00.703Z,6.90
2024-01-20T00:58:53.419Z,6.40
2024-01-20T01:01:46.217Z,6.00
2024-01-20T01:04:39.161Z,6.00
2024-01-20T01:07:31.806Z,7.20
2024-01-20T01:10:26.984Z,6.60
2024-01-20T01:13:19.663Z,5.60
2024-01-20T01:16:12.323Z,6.60
2024-01-20T01:19:05.007Z,5.50
2024-01-20T01:21:57.694Z,5.70
2024-01-20T01:24:50.318Z,5.60
2024-01-20T01:27:43.319Z,5.40
2024-01-20T01:30:36.187Z,5.90
2024-01-20T01:33:29.080Z,6.30
2024-01-20T01:36:22.940Z,5.90
2024-01-20T01:39:16.863Z,5.60
2024-01-20T01:42:09.484Z,5.50
2024-01-20T01:45:02.155Z,5.80
2024-01-20T01:47:55.955Z,5.80
2024-01-20T01:50:48.653Z,6.50
2024-01-20T01:53:41.233Z,6.00
2024-01-20T01:56:33.959Z,5.70
2024-01-20T01:59:26.664Z,6.00
2024-01-20T02:02:19.311Z,5.50
2024-01-20T02:05:12.141Z,5.90
2024-01-20T02:08:06.460Z,6.70
2024-01-20T02:10:59.208Z,7.70
2024-01-20T02:13:52.029Z,9.20
2024-01-20T02:16:44.774Z,11.60
2024-01-20T02:19:40.515Z,12.30
2024-01-20T02:22:35.206Z,14.00
2024-01-20T02:25:28.065Z,13.40
2024-01-20T02:28:20.641Z,14.00
2024-01-20T02:31:13.249Z,14.10
2024-01-20T02:34:05.946Z,14.90
2024-01-20T02:36:58.668Z,15.30
2024-01-20T02:39:51.286Z,14.30
2024-01-20T02:42:43.828Z,15.90
2024-01-20T02:45:36.713Z,17.60
2024-01-20T02:48:29.528Z,16.10
2024-01-20T02:51:22.366Z,14.60
2024-01-20T02:54:15.155Z,15.80
2024-01-20T02:57:08.234Z,18.60
2024-01-20T03:00:01.410Z,17.30
2024-01-20T03:02:54.391Z,14.70
2024-01-20T03:05:47.158Z,16.80
2024-01-20T03:08:39.836Z,18.70
2024-01-20T03:11:32.484Z,19.80
2024-01-20T03:14:25.150Z,20.30
2024-01-20T03:17:17.724Z,14.20
2024-01-20T03:20:12.339Z,19.30
2024-01-20T03:23:05.656Z,13.10
2024-01-20T03:25:58.367Z,12.80
2024-01-20T03:28:53.145Z,12.70
2024-01-20T03:31:45.732Z,13.50
2024-01-20T03:34:38.387Z,12.80
2024-01-20T03:37:31.060Z,14.10
2024-01-20T03:40:23.658Z,14.90
2024-01-20T03:43:16.303Z,15.50
2024-01-20T03:46:08.922Z,15.30
2024-01-20T03:49:01.825Z,16.00
2024-01-20T03:51:54.578Z,15.90
2024-01-20T03:54:47.159Z,15.80
2024-01-20T03:57:39.740Z,16.70
2024-01-20T04:00:32.398Z,15.90
2024-01-20T04:03:25.245Z,17.60
2024-01-20T04:06:17.989Z,19.80
2024-01-20T04:09:10.695Z,18.30
2024-01-20T04:12:03.510Z,17.50
2024-01-20T04:14:56.891Z,17.40
2024-01-20T04:17:49.845Z,17.90
2024-01-20T04:20:44.010Z,17.40
2024-01-20T04:23:36.628Z,18.40
2024-01-20T04:26:29.164Z,19.20
2024-01-20T04:29:21.701Z,19.60
2024-01-20T04:32:14.319Z,17.00
2024-01-20T04:35:10.168Z,18.90
2024-01-20T04:38:02.763Z,17.60
2024-01-20T04:40:55.977Z,18.00
2024-01-20T04:43:48.531Z,17.80
2024-01-20T04:46:42.244Z,18.80
2024-01-20T04:49:34.961Z,18.80
2024-01-20T04:52:27.772Z,21.90
2024-01-20T04:55:20.315Z,21.80
2024-01-20T04:58:13.131Z,20.70
2024-01-20T05:01:06.604Z,21.70
2024-01-20T05:03:59.835Z,21.50
2024-01-20T05:06:52.595Z,22.40
2024-01-20T05:09:45.228Z,24.00
2024-01-20T05:12:37.982Z,23.30
2024-01-20T05:15:31.812Z,22.10
2024-01-20T05:18:24.786Z,20.80
2024-01-20T05:21:17.724Z,20.90
2024-01-20T05:24:11.319Z,21.10
2024-01-20T05:27:04.454Z,23.20
2024-01-20T05:29:57.125Z,23.20
2024-01-20T05:32:50.525Z,21.80
2024-01-20T05:35:43.367Z,21.50
2024-01-20T05:38:36.058Z,23.20
2024-01-20T05:41:28.634Z,25.80
2024-01-20T05:44:21.253Z,27.40
2024-01-20T05:47:15.901Z,26.60
2024-01-20T05:50:10.058Z,27.30
2024-01-20T05:53:02.679Z,23.90
2024-01-20T05:55:55.640Z,24.30
2024-01-20T05:58:48.172Z,25.50
2024-01-20T06:01:40.739Z,24.90
2024-01-20T06:04:33.347Z,23.40
2024-01-20T06:07:25.959Z,23.90
2024-01-20T06:10:19.011Z,23.70
2024-01-20T06:13:11.682Z,21.70
2024-01-20T06:16:04.417Z,20.90
2024-01-20T06:18:57.296Z,23.50
2024-01-20T06:21:50.012Z,24.90
2024-01-20T06:24:43.712Z,24.90
2024-01-20T06:27:36.447Z,23.40
2024-01-20T06:30:29.152Z,23.80
2024-01-20T06:33:21.983Z,23.40
2024-01-20T06:36:14.832Z,22.80
2024-01-20T06:39:07.676Z,22.00
2024-01-20T06:42:00.329Z,23.30
2024-01-20T06:44:53.116Z,20.50
2024-01-20T06:47:45.874Z,22.50
2024-01-20T06:50:44.132Z,21.10
2024-01-20T06:53:36.745Z,21.00
2024-01-20T06:56:29.671Z,21.50
2024-01-20T06:59:25.556Z,26.60
2024-01-20T07:02:18.775Z,25.10
2024-01-20T07:05:12.607Z,23.80
2024-01-20T07:08:06.185Z,22.40
2024-01-20T07:10:58.754Z,21.60
2024-01-20T07:13:51.332Z,21.90
2024-01-20T07:16:43.975Z,19.80
2024-01-20T07:19:36.562Z,19.30
2024-01-20T07:22:29.185Z,18.80
2024-01-20T07:25:21.875Z,19.90
2024-01-20T07:28:14.445Z,20.10
2024-01-20T07:31:08.256Z,19.40
2024-01-20T07:34:01.022Z,16.60
2024-01-20T07:36:53.818Z,15.90
2024-01-20T07:39:48.117Z,12.90
2024-01-20T07:42:42.137Z,14.30
2024-01-20T07:45:35.093Z,14.60
2024-01-20T07:48:28.886Z,17.30
2024-01-20T07:51:22.019Z,17.50
2024-01-20T07:54:15.019Z,15.40
2024-01-20T07:57:07.970Z,13.60
2024-01-20T08:00:01.341Z,15.30
2024-01-20T08:02:54.207Z,16.00
2024-01-20T08:05:47.760Z,16.10
2024-01-20T08:08:40.807Z,15.10
2024-01-20T08:11:35.523Z,14.80
2024-01-20T08:14:28.216Z,14.20
2024-01-20T08:17:21.124Z,14.70
2024-01-20T08:20:14.937Z,15.10
2024-01-20T08:23:07.736Z,13.50
2024-01-20T08:26:00.333Z,14.60
2024-01-20T08:28:53.074Z,14.00
2024-01-20T08:31:45.658Z,15.50
2024-01-20T08:34:38.581Z,14.60
2024-01-20T08:37:32.303Z,14.70
2024-01-20T08:40:24.902Z,16.00
2024-01-20T08:43:18.480Z,15.70
2024-01-20T08:46:12.975Z,16.10
2024-01-20T08:49:05.951Z,15.00
2024-01-20T08:51:58.673Z,14.90
2024-01-20T08:54:52.308Z,13.80
2024-01-20T08:57:44.976Z,13.20
2024-01-20T09:00:37.637Z,13.60
2024-01-20T09:03:30.428Z,13.00
2024-01-20T09:06:23.297Z,12.90
2024-01-20T09:09:16.210Z,12.50
2024-01-20T09:12:10.402Z,11.70
2024-01-20T09:15:03.934Z,12.00
2024-01-20T09:17:56.832Z,11.80
2024-01-20T09:20:49.509Z,10.90
2024-01-20T09:23:44.150Z,12.20
2024-01-20T09:26:36.692Z,12.80
2024-01-20T09:29:29.404Z,11.70
2024-01-20T09:32:21.968Z,11.70
2024-01-20T09:35:14.689Z,12.60
2024-01-20T09:38:07.342Z,13.20
2024-01-20T09:41:00.188Z,13.90
2024-01-20T09:43:52.960Z,15.40
2024-01-20T09:46:45.684Z,15.70
2024-01-20T09:49:39.134Z,15.50
2024-01-20T09:52:33.472Z,14.70
2024-01-20T09:55:28.886Z,15.40
2024-01-20T09:58:22.643Z,15.10
2024-01-20T10:01:15.251Z,16.30
2024-01-20T10:04:08.235Z,15.80
2024-01-20T10:07:01.789Z,16.70
2024-01-20T10:09:54.508Z,16.10
2024-01-20T10:12:50.664Z,16.30
2024-01-20T10:15:43.394Z,15.50
2024-01-20T10:18:36.190Z,18.90
2024-01-20T10:21:29.002Z,20.50
2024-01-20T10:24:24.568Z,19.10
2024-01-20T10:27:21.638Z,18.20
2024-01-20T10:30:17.964Z,18.10
2024-01-20T10:33:12.840Z,16.60
2024-01-20T10:36:08.979Z,17.10
2024-01-20T10:39:02.096Z,18.80
2024-01-20T10:41:54.846Z,19.30
2024-01-20T10:44:50.567Z,21.50
2024-01-20T10:47:45.291Z,22.40
2024-01-20T10:50:38.861Z,23.10
2024-01-20T10:53:32.186Z,20.50
2024-01-20T10:56:25.469Z,19.70
2024-01-20T10:59:19.000Z,21.90
2024-01-20T11:02:12.834Z,21.50
2024-01-20T11:05:18.203Z,21.50
2024-01-20T11:08:11.677Z,23.50
2024-01-20T11:11:04.647Z,23.30
2024-01-20T11:14:00.510Z,24.70
2024-01-20T11:16:53.778Z,24.30
2024-01-20T11:19:46.475Z,22.10
2024-01-20T11:22:42.505Z,23.90
2024-01-20T11:25:36.878Z,23.70
2024-01-20T11:28:33.603Z,25.10
2024-01-20T11:31:28.696Z,26.30
2024-01-20T11:34:21.431Z,24.80
2024-01-20T11:37:14.101Z,24.10
2024-01-20T11:40:09.392Z,24.00
2024-01-20T11:43:09.367Z,24.40
2024-01-20T11:46:03.411Z,23.00
2024-01-20T11:48:56.212Z,25.30
2024-01-20T11:51:49.024Z,25.40
2024-01-20T11:54:41.796Z,22.60
2024-01-20T11:57:34.737Z,24.00
2024-01-20T12:00:27.836Z,23.80
2024-01-20T12:03:20.595Z,23.00
2024-01-20T12:06:17.172Z,20.90
2024-01-20T12:09:09.980Z,24.10
2024-01-20T12:12:02.612Z,24.00
2024-01-20T12:14:55.228Z,21.30
2024-01-20T12:17:48.144Z,25.30
2024-01-20T12:20:41.403Z,28.30
2024-01-20T12:23:34.157Z,27.40
2024-01-20T12:26:26.868Z,27.90
2024-01-20T12:29:20.016Z,29.10
2024-01-20T12:32:15.341Z,31.00
2024-01-20T12:35:09.763Z,29.60
2024-01-20T12:38:04.129Z,30.70
2024-01-20T12:40:56.940Z,31.10
2024-01-20T12:43:50.208Z,31.20
2024-01-20T12:46:42.998Z,31.80
2024-01-20T12:49:35.688Z,31.00
2024-01-20T12:52:28.827Z,28.40
2024-01-20T12:55:22.503Z,31.00
2024-01-20T12:58:15.520Z,30.20
2024-01-20T13:01:09.094Z,30.50
2024-01-20T13:04:02.043Z,30.10
2024-01-20T13:06:55.850Z,32.20
2024-01-20T13:09:49.142Z,31.80
2024-01-20T13:12:41.928Z,33.60
2024-01-20T13:15:34.752Z,31.60
2024-01-20T13:18:32.238Z,28.30
2024-01-20T13:21:24.999Z,32.70
2024-01-20T13:24:17.747Z,33.20
2024-01-20T13:27:10.436Z,34.50
2024-01-20T13:30:03.330Z,36.90
2024-01-20T13:32:56.232Z,36.00
2024-01-20T13:35:49.023Z,35.30
2024-01-20T13:38:41.627Z,34.20
2024-01-20T13:41:35.174Z,34.50
2024-01-20T13:44:27.993Z,35.80
2024-01-20T13:47:20.563Z,37.00
2024-01-20T13:50:13.587Z,37.90
2024-01-20T13:53:06.957Z,40.60
2024-01-20T13:55:59.657Z,38.60
2024-01-20T13:58:52.923Z,42.00
2024-01-20T14:01:45.565Z,40.50
2024-01-20T14:04:38.407Z,44.50
2024-01-20T14:07:31.042Z,41.10
2024-01-20T14:10:24.005Z,43.00
2024-01-20T14:13:16.648Z,47.00
2024-01-20T14:16:09.889Z,46.90
2024-01-20T14:19:08.110Z,44.80
2024-01-20T14:22:01.409Z,46.70
2024-01-20T14:24:53.997Z,46.00
2024-01-20T14:27:46.652Z,42.20
2024-01-20T14:30:42.850Z,45.40
2024-01-20T14:33:36.799Z,48.30
2024-01-20T14:36:29.549Z,48.80
2024-01-20T14:39:23.669Z,48.90
2024-01-20T14:42:16.824Z,50.90
2024-01-20T14:45:11.375Z,51.50
2024-01-20T14:48:06.035Z,50.00
2024-01-20T14:50:58.898Z,51.40
2024-01-20T14:53:51.493Z,50.30
2024-01-20T14:56:44.182Z,52.00
2024-01-20T14:59:36.881Z,52.30
2024-01-20T15:02:29.675Z,54.60
2024-01-20T15:05:22.362Z,53.10
2024-01-20T15:08:14.980Z,50.40
2024-01-20T15:11:07.704Z,51.10
2024-01-20T15:14:01.553Z,51.20
2024-01-20T15:16:54.178Z,53.40
2024-01-20T15:19:46.944Z,53.40
2024-01-20T15:22:39.769Z,50.30
2024-01-20T15:25:32.354Z,50.80
2024-01-20T15:28:25.132Z,46.70
2024-01-20T15:31:17.801Z,53.90
2024-01-20T15:34:10.881Z,50.20
2024-01-20T15:37:03.775Z,53.30
2024-01-20T15:39:56.499Z,56.70
2024-01-20T15:42:51.379Z,50.50
2024-01-20T15:45:44.094Z,54.90
2024-01-20T15:48:37.727Z,49.60
2024-01-20T15:51:30.842Z,50.40
2024-01-20T15:54:23.646Z,49.20
2024-01-20T15:57:16.439Z,46.10
2024-01-20T16:00:11.974Z,49.30
2024-01-20T16:03:05.555Z,46.20
2024-01-20T16:05:58.318Z,46.80
2024-01-20T16:08:53.098Z,46.50
2024-01-20T16:11:50.995Z,42.30
2024-01-20T16:14:43.755Z,44.80
2024-01-20T16:17:37.353Z,45.40
2024-01-20T16:20:31.144Z,43.60
2024-01-20T16:23:23.777Z,47.30
2024-01-20T16:26:17.898Z,54.90
2024-01-20T16:29:11.156Z,47.90
2024-01-20T16:32:03.986Z,50.20
2024-01-20T16:34:56.732Z,49.10
2024-01-20T16:37:49.925Z,46.80
2024-01-20T16:40:42.662Z,49.80
2024-01-20T16:43:35.631Z,46.50
2024-01-20T16:46:28.319Z,47.90
2024-01-20T16:49:21.106Z,46.50
2024-01-20T16:52:14.730Z,38.60
2024-01-20T16:55:14.922Z,44.30
2024-01-20T16:58:08.442Z,47.40
2024-01-20T17:01:01.299Z,45.90
2024-01-20T17:03:54.212Z,40.10
2024-01-20T17:06:47.166Z,44.90
2024-01-20T17:09:43.080Z,50.20
2024-01-20T17:12:35.702Z,50.90
2024-01-20T17:15:28.370Z,48.20
2024-01-20T17:18:21.061Z,48.60
2024-01-20T17:21:17.792Z,46.90
2024-01-20T17:24:10.674Z,37.10
2024-01-20T17:27:03.958Z,38.40
2024-01-20T17:29:57.334Z,45.20
2024-01-20T17:32:50.093Z,43.20
2024-01-20T17:35:42.873Z,44.70
2024-01-20T17:38:35.456Z,42.00
2024-01-20T17:41:28.055Z,37.90
2024-01-20T17:44:21.592Z,44.90
2024-01-20T17:47:14.774Z,40.10
2024-01-20T17:50:09.123Z,42.10
2024-01-20T17:53:02.186Z,43.30
2024-01-20T17:55:54.781Z,36.80
2024-01-20T17:58:47.360Z,34.10
2024-01-20T18:01:40.088Z,38.50
2024-01-20T18:04:33.046Z,39.40
2024-01-20T18:07:27.976Z,37.00
2024-01-20T18:10:20.851Z,37.70
2024-01-20T18:13:14.786Z,41.60
2024-01-20T18:16:09.063Z,39.40
2024-01-20T18:19:02.038Z,36.50
2024-01-20T18:21:54.680Z,40.30
2024-01-20T18:24:47.665Z,33.70
2024-01-20T18:27:41.085Z,39.10
2024-01-20T18:30:33.802Z,32.70
2024-01-20T18:33:26.431Z,31.60
2024-01-20T18:36:19.171Z,28.10
2024-01-20T18:39:11.878Z,28.40
2024-01-20T18:42:04.894Z,32.20
2024-01-20T18:44:57.538Z,28.80
2024-01-20T18:47:50.705Z,34.70
2024-01-20T18:50:44.340Z,34.90
2024-01-20T18:53:38.128Z,32.40
2024-01-20T18:56:31.154Z,33.10
2024-01-20T18:59:23.876Z,30.90
2024-01-20T19:02:16.755Z,32.40
2024-01-20T19:05:09.807Z,33.80
2024-01-20T19:08:02.428Z,37.30
2024-01-20T19:10:54.982Z,35.30
2024-01-20T19:13:47.553Z,34.20
2024-01-20T19:16:40.087Z,33.10
2024-01-20T19:19:34.744Z,27.60
2024-01-20T19:22:28.835Z,23.90
2024-01-20T19:25:21.629Z,26.50
2024-01-20T19:28:14.220Z,28.40
2024-01-20T19:31:07.439Z,25.50
2024-01-20T19:34:00.591Z,26.20
2024-01-20T19:36:53.333Z,27.10
2024-01-20T19:39:47.259Z,28.30
2024-01-20T19:42:40.321Z,28.20
2024-01-20T19:45:33.052Z,30.40
2024-01-20T19:48:25.760Z,28.30
2024-01-20T19:51:18.460Z,25.60
2024-01-20T19:54:12.348Z,28.40
2024-01-20T19:57:05.702Z,28.80
2024-01-20T20:00:01.387Z,32.10
2024-01-20T20:02:59.962Z,31.00
2024-01-20T20:05:52.678Z,31.20
2024-01-20T20:08:45.595Z,30.30
2024-01-20T20:11:38.206Z,33.40
2024-01-20T20:14:30.821Z,31.90
2024-01-20T20:17:24.158Z,32.30
2024-01-20T20:20:16.841Z,30.40
2024-01-20T20:23:10.660Z,32.10
2024-01-20T20:26:03.220Z,34.70
2024-01-20T20:28:55.936Z,31.90
2024-01-20T20:31:49.770Z,35.40
2024-01-20T20:34:42.402Z,34.90
2024-01-20T20:37:37.137Z,34.40
2024-01-20T20:40:29.783Z,39.70
2024-01-20T20:43:22.493Z,41.60
2024-01-20T20:46:15.200Z,42.50
2024-01-20T20:49:09.200Z,43.20
2024-01-20T20:52:01.985Z,31.10
2024-01-20T20:54:54.635Z,49.80
2024-01-20T20:57:47.530Z,36.30
2024-01-20T21:00:40.354Z,35.60
2024-01-20T21:03:33.051Z,41.50
2024-01-20T21:06:26.101Z,38.10
2024-01-20T21:09:18.940Z,30.30
2024-01-20T21:12:12.205Z,35.50
2024-01-20T21:15:07.982Z,32.50
2024-01-20T21:18:00.934Z,31.90
2024-01-20T21:20:53.788Z,35.80
2024-01-20T21:23:48.441Z,33.80
2024-01-20T21:26:42.082Z,34.10
2024-01-20T21:29:35.668Z,32.00
2024-01-20T21:32:29.141Z,57.70
2024-01-20T21:35:23.153Z,40.00
2024-01-20T21:38:15.914Z,33.50
2024-01-20T21:41:09.503Z,27.40
2024-01-20T21:44:04.290Z,47.30
2024-01-20T21:46:57.261Z,35.10
2024-01-20T21:49:50.599Z,34.70
2024-01-20T21:52:43.675Z,35.50
2024-01-20T21:55:36.444Z,30.90
2024-01-20T21:58:29.284Z,31.40
2024-01-20T22:01:23.605Z,27.20
2024-01-20T22:04:16.592Z,31.20
2024-01-20T22:07:11.610Z,28.00
2024-01-20T22:10:05.900Z,30.90
2024-01-20T22:12:58.662Z,31.20
2024-01-20T22:15:52.064Z,29.60
2024-01-20T22:18:44.827Z,30.80
2024-01-20T22:21:40.089Z,33.10
2024-01-20T22:24:32.817Z,33.90
2024-01-20T22:27:25.516Z,26.30
2024-01-20T22:30:18.311Z,29.60
2024-01-20T22:33:11.579Z,25.10
2024-01-20T22:36:04.530Z,34.00
2024-01-20T22:38:58.146Z,31.00
2024-01-20T22:41:50.867Z,29.50
2024-01-20T22:44:43.480Z,25.50
2024-01-20T22:47:37.637Z,29.20
2024-01-20T22:50:31.856Z,28.30
2024-01-20T22:53:28.812Z,41.70
2024-01-20T22:56:22.453Z,27.30
2024-01-20T22:59:15.322Z,28.70
2024-01-20T23:02:10.945Z,30.30
2024-01-20T23:05:03.831Z,33.60
2024-01-20T23:07:57.014Z,25.20
2024-01-20T23:10:50.183Z,29.30
2024-01-20T23:13:42.947Z,31.10
2024-01-20T23:16:36.419Z,28.70
2024-01-20T23:19:29.893Z,31.10
2024-01-20T23:22:22.988Z,29.00
2024-01-20T23:25:16.388Z,32.70
2024-01-20T23:28:09.517Z,24.70
2024-01-20T23:31:02.140Z,29.80
2024-01-20T23:33:54.812Z,24.20
2024-01-20T23:36:47.618Z,32.00
2024-01-20T23:39:40.279Z,40.70
2024-01-20T23:42:32.965Z,28.40
2024-01-20T23:45:27.085Z,23.70
2024-01-20T23:48:21.017Z,36.50
2024-01-20T23:51:14.877Z,64.20
2024-01-20T23:54:07.718Z,28.70
2024-01-20T23:57:02.211Z,54.40
2024-01-20T23:59:54.842Z,33.40
